Coe Leni — A8VR8 — position and weather

sailwx.info

Track history (hours):
 
Tides and Currents Weather Stations Pressure Air Temp Water Temp Dewpoint Dewpoint Depression Visibility Wind Speed Wind Dir Waves Ship Positions

Coe Leni

Last reported at 2018-Jan-29 23:31 UTC. Time now 2018-Feb-19 13:53 UTC.
Position N 51°20' W 008°30'.
Warning: this ship's position is 20 days out of date.

Length 138 m; draft 6.3 m.

Type: Ship. MMSI: 636092036.

Date/timePositionNaut miles runAvg speedWind from/ knotsBaromVisibWave heightAir tempDewpointWater temp
2018-Jan-29 23:31N 51°20' W 008°30'012.7
2018-Jan-29 23:30N 51°20' W 008°30'612.7
2018-Jan-29 23:00N 51°24' W 008°22'613.0
2018-Jan-29 22:30N 51°29' W 008°14'713.1
2018-Jan-29 22:00N 51°33' W 008°06'713.1
2018-Jan-29 21:30N 51°37' W 007°58'713.2
2018-Jan-29 21:00N 51°41' W 007°50'713.1
2018-Jan-29 20:30N 51°45' W 007°42'612.9
2018-Jan-29 20:00N 51°49' W 007°34'713.0
2018-Jan-29 19:30N 51°54' W 007°26'612.9
2018-Jan-29 19:00N 51°58' W 007°17'612.8
2018-Jan-29 18:30N 52°02' W 007°09'612.5
2018-Jan-29 18:00N 52°06' W 007°01'4 8.0
2018-Jan-29 17:29N 52°09' W 006°57'0 0.2
2018-Jan-29 16:59N 52°09' W 006°57'0 0.1
2018-Jan-29 16:29N 52°09' W 006°57'0 0.0
2018-Jan-29 15:59N 52°09' W 006°57'0 0.0
2018-Jan-29 15:29N 52°09' W 006°57'0 0.1
2018-Jan-29 14:59N 52°09' W 006°57'0 0.0
2018-Jan-29 14:29N 52°09' W 006°57'0 0.0
2018-Jan-29 13:59N 52°09' W 006°57'0 0.0
2018-Jan-29 13:29N 52°09' W 006°57'0 0.1
2018-Jan-29 12:59N 52°09' W 006°57'0 0.1
2018-Jan-29 12:29N 52°09' W 006°57'0 0.1
2018-Jan-29 11:59N 52°09' W 006°57'0 0.2
2018-Jan-29 11:23N 52°09' W 006°57'0 0.0
2018-Jan-29 10:59N 52°09' W 006°57'0 0.2
2018-Jan-29 10:29N 52°09' W 006°57'0 0.1
2018-Jan-29 09:59N 52°09' W 006°57'0 0.0
2018-Jan-29 09:29N 52°09' W 006°57'0 0.2
2018-Jan-29 08:59N 52°09' W 006°58'0 0.1
2018-Jan-29 08:29N 52°09' W 006°58'0 0.1
2018-Jan-29 07:59N 52°09' W 006°58'0 0.2
2018-Jan-29 07:29N 52°09' W 006°57'0 0.0
2018-Jan-29 06:59N 52°09' W 006°57'0 0.1
2018-Jan-29 06:29N 52°09' W 006°57'0 0.1
2018-Jan-29 05:59N 52°09' W 006°57'0 0.0
2018-Jan-29 05:23N 52°09' W 006°57'0 0.1
2018-Jan-29 04:59N 52°09' W 006°57'0 0.1
2018-Jan-29 04:29N 52°09' W 006°57'0 0.0
2018-Jan-29 03:59N 52°09' W 006°57'0 0.1
2018-Jan-29 03:29N 52°09' W 006°58'0 0.0
2018-Jan-29 02:59N 52°09' W 006°58'0 0.0
2018-Jan-29 02:29N 52°09' W 006°58'0 0.0
2018-Jan-29 01:59N 52°09' W 006°58'0 0.0
2018-Jan-29 01:29N 52°09' W 006°58'0 0.0
2018-Jan-29 00:59N 52°09' W 006°58'0 0.0
2018-Jan-29 00:29N 52°09' W 006°58'0 0.0
2018-Jan-28 23:59N 52°09' W 006°58'0 0.0
2018-Jan-28 23:29N 52°09' W 006°58'0 0.0
2018-Jan-28 22:59N 52°09' W 006°58'0 0.0
2018-Jan-28 22:29N 52°09' W 006°58'0 0.0
2018-Jan-28 21:59N 52°09' W 006°58'0 0.0
2018-Jan-28 21:26N 52°09' W 006°58'0 0.0
2018-Jan-28 20:59N 52°09' W 006°58'0 0.0
2018-Jan-28 20:29N 52°09' W 006°58'0 0.0
2018-Jan-28 19:59N 52°09' W 006°58'0 0.0
2018-Jan-28 19:29N 52°09' W 006°58'0 0.1
2018-Jan-28 18:59N 52°09' W 006°58'0 0.0
2018-Jan-28 18:29N 52°09' W 006°58'0 0.0
2018-Jan-28 17:59N 52°09' W 006°58'0 0.1
2018-Jan-28 17:29N 52°09' W 006°58'0 0.0
2018-Jan-28 16:59N 52°09' W 006°58'0 0.0
2018-Jan-28 16:29N 52°09' W 006°58'0 0.6
2018-Jan-28 16:00N 52°09' W 006°58'4 8.2
2018-Jan-28 15:30N 52°13' W 006°56'4 8.4
2018-Jan-28 15:00N 52°17' W 006°60'1 2.4
2018-Jan-28 14:25N 52°16' W 007°02'0 0.0
2018-Jan-28 13:58N 52°16' W 007°02'0 0.0
2018-Jan-28 13:25N 52°16' W 007°02'0 0.0
2018-Jan-28 12:52N 52°16' W 007°02'0 0.0
2018-Jan-28 12:19N 52°16' W 007°02'0 0.0
2018-Jan-28 10:52N 52°16' W 007°02'0 0.0
2018-Jan-28 10:28N 52°16' W 007°02'0 0.0
2018-Jan-28 09:46N 52°16' W 007°02'0 0.0
2018-Jan-28 09:16N 52°16' W 007°02'0 0.0
2018-Jan-28 08:58N 52°16' W 007°02'0 0.0
2018-Jan-28 08:28N 52°16' W 007°02'0 0.0
2018-Jan-28 07:58N 52°16' W 007°02'0 0.0
2018-Jan-28 07:28N 52°16' W 007°02'0 0.0
2018-Jan-28 06:55N 52°16' W 007°02'0 0.0
2018-Jan-28 06:25N 52°16' W 007°02'0 0.0
2018-Jan-28 05:58N 52°16' W 007°02'0 0.0
2018-Jan-28 05:25N 52°16' W 007°02'0 0.0
2018-Jan-28 04:55N 52°16' W 007°02'0 0.0
2018-Jan-28 04:25N 52°16' W 007°02'0 0.0
2018-Jan-28 03:58N 52°16' W 007°02'0 0.0
2018-Jan-28 03:25N 52°16' W 007°02'0 0.0
2018-Jan-28 02:55N 52°16' W 007°02'0 0.0
2018-Jan-28 02:25N 52°16' W 007°02'0 0.0
2018-Jan-28 01:55N 52°16' W 007°02'0 0.0
2018-Jan-28 01:25N 52°16' W 007°02'0 0.0
2018-Jan-28 00:55N 52°16' W 007°02'0 0.0
2018-Jan-28 00:19N 52°16' W 007°02'0 0.0
2018-Jan-27 23:55N 52°16' W 007°02'0 0.0
2018-Jan-27 23:25N 52°16' W 007°02'0 0.0
2018-Jan-27 22:58N 52°16' W 007°02'0 0.0
2018-Jan-27 22:25N 52°16' W 007°02'0 0.0
2018-Jan-27 21:55N 52°16' W 007°02'0 0.0
2018-Jan-27 21:25N 52°16' W 007°02'0 0.0
2018-Jan-27 20:52N 52°16' W 007°02'0 0.0
2018-Jan-27 20:25N 52°16' W 007°02'0 0.0
2018-Jan-27 19:58N 52°16' W 007°02'0 0.0
2018-Jan-27 19:25N 52°16' W 007°02'0 0.0
2018-Jan-27 18:55N 52°16' W 007°02'0 0.0
2018-Jan-27 18:25N 52°16' W 007°02'0 0.0
2018-Jan-27 17:58N 52°16' W 007°02'0 0.0
2018-Jan-27 17:19N 52°16' W 007°02'0 0.0
2018-Jan-27 16:52N 52°16' W 007°02'0 0.0
2018-Jan-27 16:28N 52°16' W 007°02'0 0.0
2018-Jan-27 15:55N 52°16' W 007°02'0 0.0
2018-Jan-27 15:25N 52°16' W 007°02'0 0.0
2018-Jan-27 14:49N 52°16' W 007°02'0 0.0
2018-Jan-27 14:25N 52°16' W 007°02'0 0.0
2018-Jan-27 13:55N 52°16' W 007°02'0 0.0
2018-Jan-27 13:25N 52°16' W 007°02'0 0.0
2018-Jan-27 12:58N 52°16' W 007°02'0 0.0
2018-Jan-27 12:25N 52°16' W 007°02'0 0.0
2018-Jan-27 11:52N 52°16' W 007°02'0 0.0
2018-Jan-27 11:25N 52°16' W 007°02'0 0.0
2018-Jan-27 10:58N 52°16' W 007°02'0 0.0
2018-Jan-27 10:16N 52°16' W 007°02'0 0.0
2018-Jan-27 09:55N 52°16' W 007°02'0 0.0
2018-Jan-27 09:25N 52°16' W 007°02'0 0.0
2018-Jan-27 08:58N 52°16' W 007°02'0 0.0
2018-Jan-27 07:10N 52°16' W 007°02'0 0.0
2018-Jan-27 06:58N 52°16' W 007°02'0 0.0
2018-Jan-27 06:28N 52°16' W 007°02'0 0.0
2018-Jan-27 05:22N 52°16' W 007°02'0 0.0
2018-Jan-27 04:34N 52°16' W 007°02'0 0.0
2018-Jan-27 04:16N 52°16' W 007°02'0 0.0
2018-Jan-27 03:52N 52°16' W 007°02'0 0.0
2018-Jan-27 03:28N 52°16' W 007°02'0 0.0
2018-Jan-27 02:55N 52°16' W 007°02'0 0.0
2018-Jan-27 02:19N 52°16' W 007°02'0 0.0
2018-Jan-27 01:55N 52°16' W 007°02'0 0.0
2018-Jan-27 01:25N 52°16' W 007°02'0 0.0
2018-Jan-27 00:55N 52°16' W 007°02'0 0.0
2018-Jan-27 00:25N 52°16' W 007°02'0 0.0
2018-Jan-26 23:55N 52°16' W 007°02'0 0.0
2018-Jan-26 23:25N 52°16' W 007°02'0 0.0
2018-Jan-26 22:55N 52°16' W 007°02'0 0.0
2018-Jan-26 22:25N 52°16' W 007°02'0 0.0
2018-Jan-26 21:49N 52°16' W 007°02'0 0.0
2018-Jan-26 21:25N 52°16' W 007°02'0 0.0
2018-Jan-26 20:55N 52°16' W 007°02'0 0.0
2018-Jan-26 20:25N 52°16' W 007°02'0 0.0
2018-Jan-26 19:55N 52°16' W 007°02'0 0.0
2018-Jan-26 19:28N 52°16' W 007°02'0 0.0
2018-Jan-26 18:58N 52°16' W 007°02'0 0.0
2018-Jan-26 18:25N 52°16' W 007°02'0 0.0
2018-Jan-26 17:58N 52°16' W 007°02'0 0.0
2018-Jan-26 17:25N 52°16' W 007°02'0 0.0
2018-Jan-26 16:55N 52°16' W 007°02'0 0.0
2018-Jan-26 16:25N 52°16' W 007°02'0 0.0
2018-Jan-26 15:55N 52°16' W 007°02'0 0.0
2018-Jan-26 15:25N 52°16' W 007°02'0 0.0
2018-Jan-26 14:58N 52°16' W 007°02'0 0.0
2018-Jan-26 14:25N 52°16' W 007°02'0 0.0
2018-Jan-26 13:58N 52°16' W 007°02'0 0.0
2018-Jan-26 13:25N 52°16' W 007°02'0 0.0
2018-Jan-26 12:55N 52°16' W 007°02'0 0.0
2018-Jan-26 12:22N 52°16' W 007°02'0 0.0
2018-Jan-26 11:55N 52°16' W 007°02'0 0.0
2018-Jan-26 11:25N 52°16' W 007°02'0 0.0
2018-Jan-26 10:55N 52°16' W 007°02'0 0.0
2018-Jan-26 10:25N 52°16' W 007°02'0 0.0
2018-Jan-26 09:55N 52°16' W 007°02'0 0.0
2018-Jan-26 09:25N 52°16' W 007°02'0 0.0
2018-Jan-26 08:55N 52°16' W 007°02'0 0.0
2018-Jan-26 08:19N 52°16' W 007°02'0 0.0
2018-Jan-26 07:58N 52°16' W 007°02'0 0.0
2018-Jan-26 07:25N 52°16' W 007°02'0 0.0
2018-Jan-26 06:55N 52°16' W 007°02'0 0.0
2018-Jan-26 06:28N 52°16' W 007°02'0 0.0
2018-Jan-26 05:58N 52°16' W 007°02'0 0.0
2018-Jan-26 05:28N 52°16' W 007°02'0 0.0
2018-Jan-26 04:55N 52°16' W 007°02'0 0.0
2018-Jan-26 04:25N 52°16' W 007°02'0 0.0
2018-Jan-26 03:55N 52°16' W 007°02'0 0.0
2018-Jan-26 03:25N 52°16' W 007°02'0 0.0
2018-Jan-26 02:49N 52°16' W 007°02'0 0.0
2018-Jan-26 02:28N 52°16' W 007°02'0 0.0
2018-Jan-26 01:55N 52°16' W 007°02'0 0.0
2018-Jan-26 01:28N 52°16' W 007°02'0 0.0
2018-Jan-26 00:55N 52°16' W 007°02'0 0.0
2018-Jan-26 00:30N 52°16' W 007°02'0 0.4
2018-Jan-26 00:01N 52°16' W 007°02'1 2.7
2018-Jan-25 23:30N 52°16' W 006°59'3 6.7
2018-Jan-25 23:01N 52°13' W 006°56'5 9.1
2018-Jan-25 22:31N 52°09' W 006°58'3 6.4
2018-Jan-25 22:00N 52°06' W 006°59'4 7.6
2018-Jan-25 21:31N 52°02' W 006°57'5 7.9
2018-Jan-25 20:54N 51°57' W 006°54'5 8.6
2018-Jan-25 20:22N 51°53' W 006°51'4 8.8
2018-Jan-25 19:57N 51°50' W 006°49'172 8.1
2018-Jan-24 22:44N 49°57' W 003°24'210.0
2018-Jan-24 22:29N 49°58' W 003°20'5 9.8
2018-Jan-24 21:59N 49°59' W 003°13'510.2
2018-Jan-24 21:30N 49°60' W 003°05'510.6
2018-Jan-24 21:01N 50°01' W 002°57'610.8
2018-Jan-24 20:27N 50°02' W 002°48'511.3
2018-Jan-24 20:00N 50°03' W 002°40'93 9.0
2018-Jan-24 09:40N 50°27' W 000°20'212.0
2018-Jan-24 09:31N 50°28' W 000°17'612.1
2018-Jan-24 09:01N 50°29' W 000°08'712.8
2018-Jan-24 08:27N 50°31' E 000°03'712.9
2018-Jan-24 07:55N 50°33' E 000°13'713.1
2018-Jan-24 07:25N 50°35' E 000°24'512.9
2018-Jan-24 07:00N 50°36' E 000°32'612.6
2018-Jan-24 06:30N 50°39' E 000°41'612.2
2018-Jan-24 06:01N 50°43' E 000°48'612.1
2018-Jan-24 05:30N 50°47' E 000°55'1311.7
2018-Jan-24 04:25N 50°55' E 001°10'611.2
2018-Jan-24 03:53N 50°59' E 001°17'410.6
2018-Jan-24 03:30N 51°02' E 001°22'511.0
2018-Jan-24 03:00N 51°05' E 001°29'611.3
2018-Jan-24 02:31N 51°08' E 001°36'612.3
2018-Jan-24 02:00N 51°12' E 001°44'713.2
2018-Jan-24 01:31N 51°18' E 001°49'713.9
2018-Jan-24 01:00N 51°24' E 001°54'714.4
2018-Jan-24 00:30N 51°30' E 002°01'714.7
2018-Jan-24 00:00N 51°35' E 002°09'714.4
2018-Jan-23 23:31N 51°41' E 002°17'5411.7
2018-Jan-23 18:53N 52°03' E 003°37'512.1
2018-Jan-23 18:30N 52°03' E 003°44'611.6
2018-Jan-23 18:00N 52°03' E 003°53'4 7.6
2018-Jan-23 17:30N 52°01' E 003°59'611.9
2018-Jan-23 17:00N 51°59' E 004°07'611.4
2018-Jan-23 16:30N 51°55' E 004°14'4 8.4
2018-Jan-23 16:00N 51°54' E 004°21'4 7.1
2018-Jan-23 15:30N 51°54' E 004°27'0 0.7
2018-Jan-23 14:57N 51°54' E 004°27'0 0.0
2018-Jan-23 14:30N 51°54' E 004°27'0 0.0
2018-Jan-23 14:00N 51°54' E 004°27'0 0.0
2018-Jan-23 13:30N 51°54' E 004°27'0 0.0
2018-Jan-23 13:00N 51°54' E 004°27'0 0.0
2018-Jan-23 12:30N 51°54' E 004°27'0 0.0
2018-Jan-23 12:00N 51°54' E 004°27'0 0.0
2018-Jan-23 11:30N 51°54' E 004°27'0 0.0
2018-Jan-23 11:00N 51°54' E 004°27'0 0.0
2018-Jan-23 10:30N 51°54' E 004°27'0 0.0
2018-Jan-23 10:00N 51°54' E 004°27'0 0.0
2018-Jan-23 09:30N 51°54' E 004°27'0 0.0
2018-Jan-23 09:00N 51°54' E 004°27'0 0.0
2018-Jan-23 08:30N 51°54' E 004°27'0 0.0
2018-Jan-23 08:00N 51°54' E 004°27'0 0.0
2018-Jan-23 07:30N 51°54' E 004°27'0 0.0
2018-Jan-23 07:00N 51°54' E 004°27'0 0.0
2018-Jan-23 06:30N 51°54' E 004°27'0 0.0
2018-Jan-23 06:00N 51°54' E 004°27'0 0.0
2018-Jan-23 05:30N 51°54' E 004°27'0 0.0
2018-Jan-23 05:00N 51°54' E 004°27'0 0.0
2018-Jan-23 04:30N 51°54' E 004°27'0 0.0
2018-Jan-23 04:00N 51°54' E 004°27'0 0.0
2018-Jan-23 03:30N 51°54' E 004°27'0 0.0
2018-Jan-23 03:00N 51°54' E 004°27'0 0.0
2018-Jan-23 02:30N 51°54' E 004°27'0 0.0
2018-Jan-23 02:00N 51°54' E 004°27'0 0.0
2018-Jan-23 01:30N 51°54' E 004°27'0 0.0
2018-Jan-23 01:00N 51°54' E 004°27'0 0.0
2018-Jan-23 00:27N 51°54' E 004°27'0 0.0
2018-Jan-23 00:00N 51°54' E 004°27'0 0.3
2018-Jan-22 23:31N 51°54' E 004°27'1 2.5
2018-Jan-22 23:01N 51°54' E 004°25'3 6.7
2018-Jan-22 22:31N 51°54' E 004°20'5 9.3
2018-Jan-22 22:00N 51°56' E 004°13'511.1
2018-Jan-22 21:31N 51°59' E 004°06'713.3
2018-Jan-22 21:00N 52°00' E 003°55'510.4
2018-Jan-22 20:30N 51°59' E 003°47'6313.5
2018-Jan-22 15:51N 51°30' E 002°17'513.9
2018-Jan-22 15:30N 51°26' E 002°13'714.0
2018-Jan-22 15:01N 51°20' E 002°10'612.6
2018-Jan-22 14:31N 51°14' E 002°04'714.0
2018-Jan-22 14:01N 51°11' E 001°54'714.2
2018-Jan-22 13:30N 51°07' E 001°45'714.2
2018-Jan-22 13:00N 51°02' E 001°37'714.5
2018-Jan-22 12:30N 50°57' E 001°29'3413.2
2018-Jan-22 09:54N 50°30' E 000°55'614.0
2018-Jan-22 09:27N 50°28' E 000°46'1513.8
2018-Jan-22 08:21N 50°24' E 000°23'513.1
2018-Jan-22 07:58N 50°23' E 000°16'612.8
2018-Jan-22 07:29N 50°21' E 000°06'712.4
2018-Jan-22 06:56N 50°19' W 000°04'711.8
2018-Jan-22 06:18N 50°17' W 000°16'9512.9
2018-Jan-21 22:55N 49°52' W 002°38'615.0
2018-Jan-21 22:31N 49°51' W 002°48'914.8
2018-Jan-21 21:56N 49°48' W 003°00'914.8
2018-Jan-21 21:19N 49°43' W 003°12'1514.7
2018-Jan-21 20:18N 49°36' W 003°32'514.6
2018-Jan-21 19:57N 49°33' W 003°39'714.6
2018-Jan-21 19:28N 49°29' W 003°48'714.5
2018-Jan-21 19:00N 49°26' W 003°57'  
Track history (hours):
 
Tides and Currents Weather Stations Pressure Air Temp Water Temp Dewpoint Dewpoint Depression Visibility Wind Speed Wind Dir Waves Ship Positions

Coe Leni

Last reported at 2018-Jan-29 23:31 UTC. Time now 2018-Feb-19 13:53 UTC.
Position N 51°20' W 008°30'.
Warning: this ship's position is 20 days out of date.

Length 138 m; draft 6.3 m.

Type: Ship. MMSI: 636092036.

Date/timePositionNaut miles runAvg speedWind from/ knotsBaromVisibWave heightAir tempDewpointWater temp
2018-Jan-29 23:31N 51°20' W 008°30'012.7
2018-Jan-29 23:30N 51°20' W 008°30'612.7
2018-Jan-29 23:00N 51°24' W 008°22'613.0
2018-Jan-29 22:30N 51°29' W 008°14'713.1
2018-Jan-29 22:00N 51°33' W 008°06'713.1
2018-Jan-29 21:30N 51°37' W 007°58'713.2
2018-Jan-29 21:00N 51°41' W 007°50'713.1
2018-Jan-29 20:30N 51°45' W 007°42'612.9
2018-Jan-29 20:00N 51°49' W 007°34'713.0
2018-Jan-29 19:30N 51°54' W 007°26'612.9
2018-Jan-29 19:00N 51°58' W 007°17'612.8
2018-Jan-29 18:30N 52°02' W 007°09'612.5
2018-Jan-29 18:00N 52°06' W 007°01'4 8.0
2018-Jan-29 17:29N 52°09' W 006°57'0 0.2
2018-Jan-29 16:59N 52°09' W 006°57'0 0.1
2018-Jan-29 16:29N 52°09' W 006°57'0 0.0
2018-Jan-29 15:59N 52°09' W 006°57'0 0.0
2018-Jan-29 15:29N 52°09' W 006°57'0 0.1
2018-Jan-29 14:59N 52°09' W 006°57'0 0.0
2018-Jan-29 14:29N 52°09' W 006°57'0 0.0
2018-Jan-29 13:59N 52°09' W 006°57'0 0.0
2018-Jan-29 13:29N 52°09' W 006°57'0 0.1
2018-Jan-29 12:59N 52°09' W 006°57'0 0.1
2018-Jan-29 12:29N 52°09' W 006°57'0 0.1
2018-Jan-29 11:59N 52°09' W 006°57'0 0.2
2018-Jan-29 11:23N 52°09' W 006°57'0 0.0
2018-Jan-29 10:59N 52°09' W 006°57'0 0.2
2018-Jan-29 10:29N 52°09' W 006°57'0 0.1
2018-Jan-29 09:59N 52°09' W 006°57'0 0.0
2018-Jan-29 09:29N 52°09' W 006°57'0 0.2
2018-Jan-29 08:59N 52°09' W 006°58'0 0.1
2018-Jan-29 08:29N 52°09' W 006°58'0 0.1
2018-Jan-29 07:59N 52°09' W 006°58'0 0.2
2018-Jan-29 07:29N 52°09' W 006°57'0 0.0
2018-Jan-29 06:59N 52°09' W 006°57'0 0.1
2018-Jan-29 06:29N 52°09' W 006°57'0 0.1
2018-Jan-29 05:59N 52°09' W 006°57'0 0.0
2018-Jan-29 05:23N 52°09' W 006°57'0 0.1
2018-Jan-29 04:59N 52°09' W 006°57'0 0.1
2018-Jan-29 04:29N 52°09' W 006°57'0 0.0
2018-Jan-29 03:59N 52°09' W 006°57'0 0.1
2018-Jan-29 03:29N 52°09' W 006°58'0 0.0
2018-Jan-29 02:59N 52°09' W 006°58'0 0.0
2018-Jan-29 02:29N 52°09' W 006°58'0 0.0
2018-Jan-29 01:59N 52°09' W 006°58'0 0.0
2018-Jan-29 01:29N 52°09' W 006°58'0 0.0
2018-Jan-29 00:59N 52°09' W 006°58'0 0.0
2018-Jan-29 00:29N 52°09' W 006°58'0 0.0
2018-Jan-28 23:59N 52°09' W 006°58'0 0.0
2018-Jan-28 23:29N 52°09' W 006°58'0 0.0
2018-Jan-28 22:59N 52°09' W 006°58'0 0.0
2018-Jan-28 22:29N 52°09' W 006°58'0 0.0
2018-Jan-28 21:59N 52°09' W 006°58'0 0.0
2018-Jan-28 21:26N 52°09' W 006°58'0 0.0
2018-Jan-28 20:59N 52°09' W 006°58'0 0.0
2018-Jan-28 20:29N 52°09' W 006°58'0 0.0
2018-Jan-28 19:59N 52°09' W 006°58'0 0.0
2018-Jan-28 19:29N 52°09' W 006°58'0 0.1
2018-Jan-28 18:59N 52°09' W 006°58'0 0.0
2018-Jan-28 18:29N 52°09' W 006°58'0 0.0
2018-Jan-28 17:59N 52°09' W 006°58'0 0.1
2018-Jan-28 17:29N 52°09' W 006°58'0 0.0
2018-Jan-28 16:59N 52°09' W 006°58'0 0.0
2018-Jan-28 16:29N 52°09' W 006°58'0 0.6
2018-Jan-28 16:00N 52°09' W 006°58'4 8.2
2018-Jan-28 15:30N 52°13' W 006°56'4 8.4
2018-Jan-28 15:00N 52°17' W 006°60'1 2.4
2018-Jan-28 14:25N 52°16' W 007°02'0 0.0
2018-Jan-28 13:58N 52°16' W 007°02'0 0.0
2018-Jan-28 13:25N 52°16' W 007°02'0 0.0
2018-Jan-28 12:52N 52°16' W 007°02'0 0.0
2018-Jan-28 12:19N 52°16' W 007°02'0 0.0
2018-Jan-28 10:52N 52°16' W 007°02'0 0.0
2018-Jan-28 10:28N 52°16' W 007°02'0 0.0
2018-Jan-28 09:46N 52°16' W 007°02'0 0.0
2018-Jan-28 09:16N 52°16' W 007°02'0 0.0
2018-Jan-28 08:58N 52°16' W 007°02'0 0.0
2018-Jan-28 08:28N 52°16' W 007°02'0 0.0
2018-Jan-28 07:58N 52°16' W 007°02'0 0.0
2018-Jan-28 07:28N 52°16' W 007°02'0 0.0
2018-Jan-28 06:55N 52°16' W 007°02'0 0.0
2018-Jan-28 06:25N 52°16' W 007°02'0 0.0
2018-Jan-28 05:58N 52°16' W 007°02'0 0.0
2018-Jan-28 05:25N 52°16' W 007°02'0 0.0
2018-Jan-28 04:55N 52°16' W 007°02'0 0.0
2018-Jan-28 04:25N 52°16' W 007°02'0 0.0
2018-Jan-28 03:58N 52°16' W 007°02'0 0.0
2018-Jan-28 03:25N 52°16' W 007°02'0 0.0
2018-Jan-28 02:55N 52°16' W 007°02'0 0.0
2018-Jan-28 02:25N 52°16' W 007°02'0 0.0
2018-Jan-28 01:55N 52°16' W 007°02'0 0.0
2018-Jan-28 01:25N 52°16' W 007°02'0 0.0
2018-Jan-28 00:55N 52°16' W 007°02'0 0.0
2018-Jan-28 00:19N 52°16' W 007°02'0 0.0
2018-Jan-27 23:55N 52°16' W 007°02'0 0.0
2018-Jan-27 23:25N 52°16' W 007°02'0 0.0
2018-Jan-27 22:58N 52°16' W 007°02'0 0.0
2018-Jan-27 22:25N 52°16' W 007°02'0 0.0
2018-Jan-27 21:55N 52°16' W 007°02'0 0.0
2018-Jan-27 21:25N 52°16' W 007°02'0 0.0
2018-Jan-27 20:52N 52°16' W 007°02'0 0.0
2018-Jan-27 20:25N 52°16' W 007°02'0 0.0
2018-Jan-27 19:58N 52°16' W 007°02'0 0.0
2018-Jan-27 19:25N 52°16' W 007°02'0 0.0
2018-Jan-27 18:55N 52°16' W 007°02'0 0.0
2018-Jan-27 18:25N 52°16' W 007°02'0 0.0
2018-Jan-27 17:58N 52°16' W 007°02'0 0.0
2018-Jan-27 17:19N 52°16' W 007°02'0 0.0
2018-Jan-27 16:52N 52°16' W 007°02'0 0.0
2018-Jan-27 16:28N 52°16' W 007°02'0 0.0
2018-Jan-27 15:55N 52°16' W 007°02'0 0.0
2018-Jan-27 15:25N 52°16' W 007°02'0 0.0
2018-Jan-27 14:49N 52°16' W 007°02'0 0.0
2018-Jan-27 14:25N 52°16' W 007°02'0 0.0
2018-Jan-27 13:55N 52°16' W 007°02'0 0.0
2018-Jan-27 13:25N 52°16' W 007°02'0 0.0
2018-Jan-27 12:58N 52°16' W 007°02'0 0.0
2018-Jan-27 12:25N 52°16' W 007°02'0 0.0
2018-Jan-27 11:52N 52°16' W 007°02'0 0.0
2018-Jan-27 11:25N 52°16' W 007°02'0 0.0
2018-Jan-27 10:58N 52°16' W 007°02'0 0.0
2018-Jan-27 10:16N 52°16' W 007°02'0 0.0
2018-Jan-27 09:55N 52°16' W 007°02'0 0.0
2018-Jan-27 09:25N 52°16' W 007°02'0 0.0
2018-Jan-27 08:58N 52°16' W 007°02'0 0.0
2018-Jan-27 07:10N 52°16' W 007°02'0 0.0
2018-Jan-27 06:58N 52°16' W 007°02'0 0.0
2018-Jan-27 06:28N 52°16' W 007°02'0 0.0
2018-Jan-27 05:22N 52°16' W 007°02'0 0.0
2018-Jan-27 04:34N 52°16' W 007°02'0 0.0
2018-Jan-27 04:16N 52°16' W 007°02'0 0.0
2018-Jan-27 03:52N 52°16' W 007°02'0 0.0
2018-Jan-27 03:28N 52°16' W 007°02'0 0.0
2018-Jan-27 02:55N 52°16' W 007°02'0 0.0
2018-Jan-27 02:19N 52°16' W 007°02'0 0.0
2018-Jan-27 01:55N 52°16' W 007°02'0 0.0
2018-Jan-27 01:25N 52°16' W 007°02'0 0.0
2018-Jan-27 00:55N 52°16' W 007°02'0 0.0
2018-Jan-27 00:25N 52°16' W 007°02'0 0.0
2018-Jan-26 23:55N 52°16' W 007°02'0 0.0
2018-Jan-26 23:25N 52°16' W 007°02'0 0.0
2018-Jan-26 22:55N 52°16' W 007°02'0 0.0
2018-Jan-26 22:25N 52°16' W 007°02'0 0.0
2018-Jan-26 21:49N 52°16' W 007°02'0 0.0
2018-Jan-26 21:25N 52°16' W 007°02'0 0.0
2018-Jan-26 20:55N 52°16' W 007°02'0 0.0
2018-Jan-26 20:25N 52°16' W 007°02'0 0.0
2018-Jan-26 19:55N 52°16' W 007°02'0 0.0
2018-Jan-26 19:28N 52°16' W 007°02'0 0.0
2018-Jan-26 18:58N 52°16' W 007°02'0 0.0
2018-Jan-26 18:25N 52°16' W 007°02'0 0.0
2018-Jan-26 17:58N 52°16' W 007°02'0 0.0
2018-Jan-26 17:25N 52°16' W 007°02'0 0.0
2018-Jan-26 16:55N 52°16' W 007°02'0 0.0
2018-Jan-26 16:25N 52°16' W 007°02'0 0.0
2018-Jan-26 15:55N 52°16' W 007°02'0 0.0
2018-Jan-26 15:25N 52°16' W 007°02'0 0.0
2018-Jan-26 14:58N 52°16' W 007°02'0 0.0
2018-Jan-26 14:25N 52°16' W 007°02'0 0.0
2018-Jan-26 13:58N 52°16' W 007°02'0 0.0
2018-Jan-26 13:25N 52°16' W 007°02'0 0.0
2018-Jan-26 12:55N 52°16' W 007°02'0 0.0
2018-Jan-26 12:22N 52°16' W 007°02'0 0.0
2018-Jan-26 11:55N 52°16' W 007°02'0 0.0
2018-Jan-26 11:25N 52°16' W 007°02'0 0.0
2018-Jan-26 10:55N 52°16' W 007°02'0 0.0
2018-Jan-26 10:25N 52°16' W 007°02'0 0.0
2018-Jan-26 09:55N 52°16' W 007°02'0 0.0
2018-Jan-26 09:25N 52°16' W 007°02'0 0.0
2018-Jan-26 08:55N 52°16' W 007°02'0 0.0
2018-Jan-26 08:19N 52°16' W 007°02'0 0.0
2018-Jan-26 07:58N 52°16' W 007°02'0 0.0
2018-Jan-26 07:25N 52°16' W 007°02'0 0.0
2018-Jan-26 06:55N 52°16' W 007°02'0 0.0
2018-Jan-26 06:28N 52°16' W 007°02'0 0.0
2018-Jan-26 05:58N 52°16' W 007°02'0 0.0
2018-Jan-26 05:28N 52°16' W 007°02'0 0.0
2018-Jan-26 04:55N 52°16' W 007°02'0 0.0
2018-Jan-26 04:25N 52°16' W 007°02'0 0.0
2018-Jan-26 03:55N 52°16' W 007°02'0 0.0
2018-Jan-26 03:25N 52°16' W 007°02'0 0.0
2018-Jan-26 02:49N 52°16' W 007°02'0 0.0
2018-Jan-26 02:28N 52°16' W 007°02'0 0.0
2018-Jan-26 01:55N 52°16' W 007°02'0 0.0
2018-Jan-26 01:28N 52°16' W 007°02'0 0.0
2018-Jan-26 00:55N 52°16' W 007°02'0 0.0
2018-Jan-26 00:30N 52°16' W 007°02'0 0.4
2018-Jan-26 00:01N 52°16' W 007°02'1 2.7
2018-Jan-25 23:30N 52°16' W 006°59'3 6.7
2018-Jan-25 23:01N 52°13' W 006°56'5 9.1
2018-Jan-25 22:31N 52°09' W 006°58'3 6.4
2018-Jan-25 22:00N 52°06' W 006°59'4 7.6
2018-Jan-25 21:31N 52°02' W 006°57'5 7.9
2018-Jan-25 20:54N 51°57' W 006°54'5 8.6
2018-Jan-25 20:22N 51°53' W 006°51'4 8.8
2018-Jan-25 19:57N 51°50' W 006°49'172 8.1
2018-Jan-24 22:44N 49°57' W 003°24'210.0
2018-Jan-24 22:29N 49°58' W 003°20'5 9.8
2018-Jan-24 21:59N 49°59' W 003°13'510.2
2018-Jan-24 21:30N 49°60' W 003°05'510.6
2018-Jan-24 21:01N 50°01' W 002°57'610.8
2018-Jan-24 20:27N 50°02' W 002°48'511.3
2018-Jan-24 20:00N 50°03' W 002°40'93 9.0
2018-Jan-24 09:40N 50°27' W 000°20'212.0
2018-Jan-24 09:31N 50°28' W 000°17'612.1
2018-Jan-24 09:01N 50°29' W 000°08'712.8
2018-Jan-24 08:27N 50°31' E 000°03'712.9
2018-Jan-24 07:55N 50°33' E 000°13'713.1
2018-Jan-24 07:25N 50°35' E 000°24'512.9
2018-Jan-24 07:00N 50°36' E 000°32'612.6
2018-Jan-24 06:30N 50°39' E 000°41'612.2
2018-Jan-24 06:01N 50°43' E 000°48'612.1
2018-Jan-24 05:30N 50°47' E 000°55'1311.7
2018-Jan-24 04:25N 50°55' E 001°10'611.2
2018-Jan-24 03:53N 50°59' E 001°17'410.6
2018-Jan-24 03:30N 51°02' E 001°22'511.0
2018-Jan-24 03:00N 51°05' E 001°29'611.3
2018-Jan-24 02:31N 51°08' E 001°36'612.3
2018-Jan-24 02:00N 51°12' E 001°44'713.2
2018-Jan-24 01:31N 51°18' E 001°49'713.9
2018-Jan-24 01:00N 51°24' E 001°54'714.4
2018-Jan-24 00:30N 51°30' E 002°01'714.7
2018-Jan-24 00:00N 51°35' E 002°09'714.4
2018-Jan-23 23:31N 51°41' E 002°17'5411.7
2018-Jan-23 18:53N 52°03' E 003°37'512.1
2018-Jan-23 18:30N 52°03' E 003°44'611.6
2018-Jan-23 18:00N 52°03' E 003°53'4 7.6
2018-Jan-23 17:30N 52°01' E 003°59'611.9
2018-Jan-23 17:00N 51°59' E 004°07'611.4
2018-Jan-23 16:30N 51°55' E 004°14'4 8.4
2018-Jan-23 16:00N 51°54' E 004°21'4 7.1
2018-Jan-23 15:30N 51°54' E 004°27'0 0.7
2018-Jan-23 14:57N 51°54' E 004°27'0 0.0
2018-Jan-23 14:30N 51°54' E 004°27'0 0.0
2018-Jan-23 14:00N 51°54' E 004°27'0 0.0
2018-Jan-23 13:30N 51°54' E 004°27'0 0.0
2018-Jan-23 13:00N 51°54' E 004°27'0 0.0
2018-Jan-23 12:30N 51°54' E 004°27'0 0.0
2018-Jan-23 12:00N 51°54' E 004°27'0 0.0
2018-Jan-23 11:30N 51°54' E 004°27'0 0.0
2018-Jan-23 11:00N 51°54' E 004°27'0 0.0
2018-Jan-23 10:30N 51°54' E 004°27'0 0.0
2018-Jan-23 10:00N 51°54' E 004°27'0 0.0
2018-Jan-23 09:30N 51°54' E 004°27'0 0.0
2018-Jan-23 09:00N 51°54' E 004°27'0 0.0
2018-Jan-23 08:30N 51°54' E 004°27'0 0.0
2018-Jan-23 08:00N 51°54' E 004°27'0 0.0
2018-Jan-23 07:30N 51°54' E 004°27'0 0.0
2018-Jan-23 07:00N 51°54' E 004°27'0 0.0
2018-Jan-23 06:30N 51°54' E 004°27'0 0.0
2018-Jan-23 06:00N 51°54' E 004°27'0 0.0
2018-Jan-23 05:30N 51°54' E 004°27'0 0.0
2018-Jan-23 05:00N 51°54' E 004°27'0 0.0
2018-Jan-23 04:30N 51°54' E 004°27'0 0.0
2018-Jan-23 04:00N 51°54' E 004°27'0 0.0
2018-Jan-23 03:30N 51°54' E 004°27'0 0.0
2018-Jan-23 03:00N 51°54' E 004°27'0 0.0
2018-Jan-23 02:30N 51°54' E 004°27'0 0.0
2018-Jan-23 02:00N 51°54' E 004°27'0 0.0
2018-Jan-23 01:30N 51°54' E 004°27'0 0.0
2018-Jan-23 01:00N 51°54' E 004°27'0 0.0
2018-Jan-23 00:27N 51°54' E 004°27'0 0.0
2018-Jan-23 00:00N 51°54' E 004°27'0 0.3
2018-Jan-22 23:31N 51°54' E 004°27'1 2.5
2018-Jan-22 23:01N 51°54' E 004°25'3 6.7
2018-Jan-22 22:31N 51°54' E 004°20'5 9.3
2018-Jan-22 22:00N 51°56' E 004°13'511.1
2018-Jan-22 21:31N 51°59' E 004°06'713.3
2018-Jan-22 21:00N 52°00' E 003°55'510.4
2018-Jan-22 20:30N 51°59' E 003°47'6313.5
2018-Jan-22 15:51N 51°30' E 002°17'513.9
2018-Jan-22 15:30N 51°26' E 002°13'714.0
2018-Jan-22 15:01N 51°20' E 002°10'612.6
2018-Jan-22 14:31N 51°14' E 002°04'714.0
2018-Jan-22 14:01N 51°11' E 001°54'714.2
2018-Jan-22 13:30N 51°07' E 001°45'714.2
2018-Jan-22 13:00N 51°02' E 001°37'714.5
2018-Jan-22 12:30N 50°57' E 001°29'3413.2
2018-Jan-22 09:54N 50°30' E 000°55'614.0
2018-Jan-22 09:27N 50°28' E 000°46'1513.8
2018-Jan-22 08:21N 50°24' E 000°23'513.1
2018-Jan-22 07:58N 50°23' E 000°16'612.8
2018-Jan-22 07:29N 50°21' E 000°06'712.4
2018-Jan-22 06:56N 50°19' W 000°04'711.8
2018-Jan-22 06:18N 50°17' W 000°16'9512.9
2018-Jan-21 22:55N 49°52' W 002°38'615.0
2018-Jan-21 22:31N 49°51' W 002°48'914.8
2018-Jan-21 21:56N 49°48' W 003°00'914.8
2018-Jan-21 21:19N 49°43' W 003°12'1514.7
2018-Jan-21 20:18N 49°36' W 003°32'514.6
2018-Jan-21 19:57N 49°33' W 003°39'714.6
2018-Jan-21 19:28N 49°29' W 003°48'714.5
2018-Jan-21 19:00N 49°26' W 003°57'  

Dump ship's entire track history